Time;durP1;ratioP1;P1;durP2;ratioP2;P2;SDS_P1;SDS_P2;PMS_P1;PMS_P2;Temp;Humidity;BMP_temperature;BMP_pressure;BME280_temperature;BME280_humidity;BME280_pressure;Samples;Min_cycle;Max_cycle;Signal;HPM_P1;HPM_P2
2023/09/09 00:02:22;;;;;;;8.10;4.20;;;;;;;11.62;100.00;101346.84;105688;1254;72608;-51
2023/09/09 00:04:52;;;;;;;8.60;3.90;;;;;;;11.50;100.00;101340.02;105694;1260;63083;-50
2023/09/09 00:07:21;;;;;;;14.60;4.30;;;;;;;11.37;100.00;101335.28;105690;1260;71543;-52
2023/09/09 00:09:49;;;;;;;7.30;3.90;;;;;;;11.27;100.00;101330.36;105726;1259;60956;-51
2023/09/09 00:12:17;;;;;;;14.20;5.00;;;;;;;11.15;100.00;101317.14;105740;1259;60486;-52
2023/09/09 00:14:44;;;;;;;9.30;4.10;;;;;;;11.05;100.00;101314.63;105688;1260;72626;-50
2023/09/09 00:17:12;;;;;;;12.10;3.90;;;;;;;10.94;100.00;101308.98;105653;1258;62400;-52
2023/09/09 00:19:40;;;;;;;9.40;4.50;;;;;;;10.84;100.00;101305.42;105696;1254;70783;-50
2023/09/09 00:22:07;;;;;;;11.70;4.30;;;;;;;10.73;100.00;101302.54;105672;1254;60794;-50
2023/09/09 00:24:35;;;;;;;9.30;4.20;;;;;;;10.63;100.00;101302.42;105673;1259;60457;-49
2023/09/09 00:27:03;;;;;;;6.50;4.20;;;;;;;10.54;100.00;101300.06;105689;1254;72549;-51
2023/09/09 00:29:31;;;;;;;13.50;4.20;;;;;;;10.46;100.00;101303.20;105715;1254;63557;-49
2023/09/09 00:31:58;;;;;;;15.50;4.10;;;;;;;10.42;100.00;101311.33;105629;1256;72150;-50
2023/09/09 00:34:26;;;;;;;16.70;4.40;;;;;;;10.38;100.00;101316.84;105775;1258;60591;-50
2023/09/09 00:36:54;;;;;;;6.80;4.20;;;;;;;10.32;100.00;101320.48;105893;1257;60421;-50
2023/09/09 00:39:21;;;;;;;12.60;4.50;;;;;;;10.27;100.00;101321.54;105816;1252;72412;-50
2023/09/09 00:41:49;;;;;;;11.00;4.40;;;;;;;10.21;100.00;101320.34;105680;1260;63373;-50
2023/09/09 00:44:18;;;;;;;16.90;4.50;;;;;;;10.14;100.00;101312.94;105809;1257;72624;-49
2023/09/09 00:46:46;;;;;;;11.00;4.50;;;;;;;10.04;100.00;101308.14;105896;1252;60469;-51
2023/09/09 00:49:14;;;;;;;8.10;4.00;;;;;;;9.92;100.00;101300.41;105924;1257;60476;-49
2023/09/09 00:51:44;;;;;;;7.10;4.40;;;;;;;9.81;100.00;101297.84;105822;1254;71887;-52
2023/09/09 01:05:05;;;;;;;5.70;3.80;;;;;;;9.46;100.00;101277.71;102596;1291;599946;-50
2023/09/09 01:07:44;;;;;;;6.80;3.90;;;;;;;9.41;100.00;101244.48;104852;1267;60359;-50
2023/09/09 01:10:12;;;;;;;7.70;4.10;;;;;;;9.35;100.00;101229.49;104890;1270;59345;-50
2023/09/09 01:12:43;;;;;;;8.50;4.60;;;;;;;9.28;100.00;101214.69;104857;1271;71033;-50
2023/09/09 01:15:12;;;;;;;9.80;4.30;;;;;;;9.22;100.00;101206.60;104809;1266;63211;-52
2023/09/09 01:17:41;;;;;;;7.50;3.80;;;;;;;9.19;100.00;101199.70;104668;1269;198895;-52
2023/09/09 01:20:16;;;;;;;8.80;4.10;;;;;;;9.17;100.00;101181.96;104848;1266;60439;-50
2023/09/09 01:22:46;;;;;;;7.50;3.80;;;;;;;9.15;100.00;101169.23;105795;1257;59316;-56
2023/09/09 01:25:14;;;;;;;7.40;4.10;;;;;;;9.15;100.00;101161.83;105904;1253;70990;-50
2023/09/09 01:27:41;;;;;;;12.00;3.90;;;;;;;9.15;100.00;101156.66;105744;1253;63141;-51
2023/09/09 01:30:11;;;;;;;6.30;4.10;;;;;;;9.14;100.00;101145.48;105655;1253;72631;-51
2023/09/09 01:32:39;;;;;;;9.10;4.40;;;;;;;9.17;100.00;101134.27;105722;1256;60405;-51
2023/09/09 01:35:07;;;;;;;10.50;4.10;;;;;;;9.18;100.00;101122.73;105827;1257;59586;-50
2023/09/09 01:37:35;;;;;;;10.60;3.80;;;;;;;9.22;100.00;101116.02;105806;1257;73025;-49
2023/09/09 01:40:10;;;;;;;10.90;4.10;;;;;;;9.25;100.00;101103.95;105724;1253;64451;-50
2023/09/09 01:42:38;;;;;;;8.10;4.60;;;;;;;9.26;100.00;101091.55;105717;1256;71753;-52
2023/09/09 01:45:07;;;;;;;9.90;4.80;;;;;;;9.28;100.00;101079.31;105689;1255;59721;-50
2023/09/09 01:47:36;;;;;;;7.60;4.00;;;;;;;9.31;100.00;101070.69;105707;1259;59530;-51
2023/09/09 01:50:04;;;;;;;6.10;3.60;;;;;;;9.33;100.00;101062.23;105792;1257;73006;-50
2023/09/09 01:52:32;;;;;;;11.10;3.90;;;;;;;9.33;100.00;101056.39;105716;1253;62212;-51
2023/09/09 01:55:00;;;;;;;7.30;4.00;;;;;;;9.32;100.00;101053.46;105656;1257;72676;-50
2023/09/09 01:57:29;;;;;;;7.80;4.20;;;;;;;9.31;100.00;101046.06;105735;1253;60724;-50
2023/09/09 01:59:58;;;;;;;9.00;3.80;;;;;;;9.27;100.00;101044.52;105755;1255;59620;-50
2023/09/09 02:02:25;;;;;;;9.00;3.80;;;;;;;9.24;100.00;101045.91;105642;1253;73010;-51
2023/09/09 02:04:53;;;;;;;8.50;3.60;;;;;;;9.18;100.00;101043.34;105682;1255;63235;-50
2023/09/09 02:07:21;;;;;;;5.80;3.90;;;;;;;9.13;100.00;101037.17;105717;1258;72667;-49
2023/09/09 02:09:49;;;;;;;11.70;3.80;;;;;;;9.09;100.00;101033.21;105661;1254;60061;-51
2023/09/09 02:12:17;;;;;;;7.90;4.20;;;;;;;9.06;100.00;101026.85;105633;1253;60828;-49
2023/09/09 02:14:44;;;;;;;8.70;4.10;;;;;;;9.02;100.00;101021.02;105655;1253;70897;-49
2023/09/09 02:17:12;;;;;;;7.70;3.90;;;;;;;8.99;100.00;101021.71;105715;1259;64883;-49
2023/09/09 02:19:40;;;;;;;10.00;4.30;;;;;;;8.99;100.00;101023.61;105668;1258;72599;-51
2023/09/09 02:22:08;;;;;;;5.80;3.60;;;;;;;8.97;100.00;101019.64;105689;1258;61639;-49
2023/09/09 02:24:35;;;;;;;7.00;3.70;;;;;;;8.94;100.00;101012.26;105700;1254;59598;-50
2023/09/09 02:27:04;;;;;;;6.70;3.50;;;;;;;8.91;100.00;101008.99;105647;1258;73026;-50
2023/09/09 02:29:32;;;;;;;10.00;4.00;;;;;;;8.94;100.00;101003.46;105672;1253;63771;-50
2023/09/09 02:31:59;;;;;;;6.00;3.80;;;;;;;8.98;100.00;100999.16;105730;1254;71472;-52
2023/09/09 02:34:27;;;;;;;7.40;3.60;;;;;;;9.06;100.00;100992.59;105646;1253;60961;-50
2023/09/09 02:37:31;;;;;;;14.70;4.30;;;;;;;9.11;100.00;100982.95;105699;1259;60025;-51
2023/09/09 02:39:58;;;;;;;4.90;3.80;;;;;;;9.12;100.00;100983.80;105292;1262;73014;-50
2023/09/09 02:42:26;;;;;;;14.90;3.60;;;;;;;9.13;100.00;100975.69;105549;1253;64472;-51
2023/09/09 02:44:54;;;;;;;8.00;3.90;;;;;;;9.16;100.00;100969.66;105611;1253;72620;-51
2023/09/09 02:47:22;;;;;;;7.90;4.00;;;;;;;9.15;100.00;100973.27;105713;1253;60722;-51
2023/09/09 02:49:50;;;;;;;10.70;4.00;;;;;;;9.16;100.00;100970.50;105665;1253;59560;-51
2023/09/09 02:52:20;;;;;;;11.80;4.20;;;;;;;9.17;100.00;100970.69;105682;1253;71839;-51
2023/09/09 02:54:48;;;;;;;6.60;4.40;;;;;;;9.16;100.00;100964.49;105627;1261;63230;-52
2023/09/09 02:57:16;;;;;;;11.30;4.30;;;;;;;9.16;100.00;100970.00;105756;1257;72627;-51
2023/09/09 02:59:43;;;;;;;13.30;4.50;;;;;;;9.18;100.00;100976.52;105661;1258;61623;-50
2023/09/09 03:02:12;;;;;;;10.70;4.10;;;;;;;9.22;100.00;100971.01;105723;1253;60032;-51
2023/09/09 03:04:39;;;;;;;10.70;5.10;;;;;;;9.20;100.00;100970.31;105636;1261;73038;-50
2023/09/09 03:07:07;;;;;;;11.20;4.80;;;;;;;9.18;100.00;100972.58;105671;1260;64405;-50
2023/09/09 03:09:36;;;;;;;17.00;5.10;;;;;;;9.15;100.00;100973.27;105677;1258;71202;-49
2023/09/09 03:12:05;;;;;;;12.10;4.40;;;;;;;9.12;100.00;100968.64;105783;1253;60909;-49
2023/09/09 03:14:33;;;;;;;9.20;4.70;;;;;;;9.09;100.00;100968.99;105691;1253;59988;-51
2023/09/09 03:17:00;;;;;;;10.90;5.10;;;;;;;9.07;100.00;100969.16;105707;1259;73042;-51
2023/09/09 03:19:28;;;;;;;14.30;5.90;;;;;;;9.06;100.00;100967.98;105681;1253;64636;-49
2023/09/09 03:21:57;;;;;;;9.70;5.20;;;;;;;9.04;100.00;100972.11;105626;1261;70481;-50
2023/09/09 03:24:25;;;;;;;8.90;4.20;;;;;;;9.05;100.00;100972.45;105749;1253;60627;-51
2023/09/09 03:26:53;;;;;;;16.20;4.70;;;;;;;9.07;100.00;100973.64;105779;1257;59600;-51
2023/09/09 03:29:21;;;;;;;7.50;4.30;;;;;;;9.08;100.00;100973.64;105677;1253;73094;-51
2023/09/09 03:31:49;;;;;;;12.40;4.70;;;;;;;9.09;100.00;100972.45;105687;1253;63014;-51
2023/09/09 03:34:18;;;;;;;8.00;4.60;;;;;;;9.12;100.00;100975.88;105738;1256;71868;-50
2023/09/09 03:36:46;;;;;;;14.40;4.90;;;;;;;9.15;100.00;100977.23;105688;1253;60278;-51
2023/09/09 03:39:16;;;;;;;13.20;4.90;;;;;;;9.19;100.00;100980.31;105764;1253;59643;-50
2023/09/09 03:41:44;;;;;;;12.80;4.90;;;;;;;9.24;100.00;100975.66;105713;1253;71916;-56
2023/09/09 03:44:12;;;;;;;14.30;5.50;;;;;;;9.28;100.00;100969.26;105706;1253;63565;-52
2023/09/09 03:46:40;;;;;;;13.20;5.40;;;;;;;9.32;100.00;100967.84;105585;1253;72671;-53
2023/09/09 03:49:07;;;;;;;15.80;5.70;;;;;;;9.39;100.00;100966.09;105615;1256;60372;-49
2023/09/09 03:51:36;;;;;;;9.90;4.50;;;;;;;9.49;100.00;100968.80;105660;1253;60008;-50
2023/09/09 03:54:04;;;;;;;12.70;5.30;;;;;;;9.58;100.00;100962.03;105778;1253;71793;-51
2023/09/09 03:56:32;;;;;;;13.80;5.40;;;;;;;9.66;100.00;100959.05;105709;1258;64438;-50
2023/09/09 03:59:00;;;;;;;10.60;4.90;;;;;;;9.74;100.00;100962.27;105667;1255;71889;-52
2023/09/09 04:01:31;;;;;;;13.20;5.40;;;;;;;9.84;100.00;100972.37;105781;1253;59648;-52
2023/09/09 04:03:59;;;;;;;15.80;5.20;;;;;;;9.95;100.00;100972.63;105707;1253;60045;-50
2023/09/09 04:06:28;;;;;;;13.80;5.90;;;;;;;10.05;100.00;100975.15;105640;1258;71643;-50
2023/09/09 04:08:57;;;;;;;14.40;5.50;;;;;;;10.14;100.00;100982.15;105764;1253;64448;-50
2023/09/09 04:11:25;;;;;;;20.50;5.00;;;;;;;10.25;100.00;100982.57;105610;1256;71733;-50
2023/09/09 04:13:53;;;;;;;12.50;5.00;;;;;;;10.35;100.00;100992.49;105766;1253;60365;-51
2023/09/09 04:16:21;;;;;;;15.70;5.80;;;;;;;10.47;100.00;101001.90;105620;1253;59625;-50
2023/09/09 04:18:50;;;;;;;15.20;5.80;;;;;;;10.59;100.00;101021.64;105791;1253;72981;-51
2023/09/09 04:21:20;;;;;;;18.10;6.40;;;;;;;10.71;100.00;101037.75;105683;1253;64591;-49
2023/09/09 04:23:47;;;;;;;14.50;5.10;;;;;;;10.86;100.00;101055.21;105503;1253;72706;-49
2023/09/09 04:26:16;;;;;;;14.40;5.00;;;;;;;10.98;100.00;101076.67;105774;1253;61047;-49
2023/09/09 04:28:44;;;;;;;15.00;5.40;;;;;;;11.08;100.00;101109.23;105705;1258;59690;-51
2023/09/09 04:31:12;;;;;;;10.50;4.90;;;;;;;11.18;100.00;101152.83;105647;1260;73029;-50
2023/09/09 04:33:42;;;;;;;20.50;5.10;;;;;;;11.30;100.00;101212.16;105802;1253;63196;-50
2023/09/09 04:36:10;;;;;;;19.00;5.10;;;;;;;11.41;100.00;101269.08;105611;1261;72616;-51
2023/09/09 04:38:38;;;;;;;12.80;5.30;;;;;;;11.53;100.00;101323.23;105763;1259;60382;-51
2023/09/09 04:41:09;;;;;;;15.20;5.00;;;;;;;11.67;100.00;101358.73;105695;1259;60007;-51
2023/09/09 04:43:37;;;;;;;15.40;4.50;;;;;;;11.86;100.00;101376.73;105639;1261;73039;-52
2023/09/09 04:46:06;;;;;;;15.50;5.30;;;;;;;12.03;100.00;101368.29;105792;1253;64621;-52
2023/09/09 04:48:34;;;;;;;13.20;5.80;;;;;;;12.14;100.00;101353.83;105851;1259;70968;-51
2023/09/09 04:51:02;;;;;;;29.50;5.20;;;;;;;12.20;100.00;101321.23;105658;1256;60536;-51
2023/09/09 04:53:31;;;;;;;12.20;5.00;;;;;;;12.23;100.00;101274.13;105801;1257;59706;-50
2023/09/09 04:56:00;;;;;;;21.50;5.70;;;;;;;12.22;100.00;101219.45;105664;1255;73012;-50
2023/09/09 04:58:30;;;;;;;9.80;4.90;;;;;;;12.23;100.00;101179.64;105662;1253;64468;-50
2023/09/09 05:00:59;;;;;;;14.60;5.10;;;;;;;12.27;100.00;101144.82;105639;1256;71404;-50
2023/09/09 05:03:28;;;;;;;13.30;5.60;;;;;;;12.33;100.00;101118.41;105796;1253;60586;-52
2023/09/09 05:05:56;;;;;;;15.50;5.20;;;;;;;12.38;100.00;101081.30;105656;1253;59975;-50
2023/09/09 05:08:24;;;;;;;17.90;5.60;;;;;;;12.42;100.00;101049.91;105758;1253;72502;-51
2023/09/09 05:10:52;;;;;;;15.30;5.50;;;;;;;12.48;100.00;101026.95;105777;1253;65133;-51
2023/09/09 05:13:20;;;;;;;12.70;5.00;;;;;;;12.54;100.00;101015.09;105653;1258;70428;-49
2023/09/09 05:15:47;;;;;;;11.70;4.90;;;;;;;12.60;100.00;100987.10;105739;1257;61621;-50
2023/09/09 05:18:15;;;;;;;15.50;4.50;;;;;;;12.68;100.00;100963.23;105616;1261;60436;-49
2023/09/09 05:20:43;;;;;;;18.00;4.70;;;;;;;12.76;100.00;100936.23;105622;1253;74024;-48
2023/09/09 05:23:12;;;;;;;10.40;4.10;;;;;;;12.86;100.00;100921.49;105690;1253;64353;-50
2023/09/09 05:25:40;;;;;;;9.80;4.00;;;;;;;12.97;100.00;100912.27;105760;1259;71461;-49
2023/09/09 05:28:08;;;;;;;9.90;3.60;;;;;;;13.08;100.00;100885.17;105795;1253;61649;-51
2023/09/09 05:30:40;;;;;;;5.20;3.80;;;;;;;13.20;100.00;100860.48;105761;1257;60336;-50
2023/09/09 05:33:08;;;;;;;9.60;4.20;;;;;;;13.28;100.00;100828.06;105771;1253;73526;-50
2023/09/09 05:35:36;;;;;;;13.70;4.70;;;;;;;13.36;100.00;100812.79;105792;1253;62804;-51
2023/09/09 05:38:04;;;;;;;12.90;5.10;;;;;;;13.44;100.00;100802.20;105744;1258;72697;-51
2023/09/09 05:40:32;;;;;;;12.50;4.70;;;;;;;13.53;100.00;100794.56;105753;1254;60490;-49
2023/09/09 05:42:59;;;;;;;23.30;5.10;;;;;;;13.61;100.00;100776.31;105617;1258;61202;-50
2023/09/09 05:45:27;;;;;;;15.20;4.00;;;;;;;13.69;100.00;100730.66;105645;1261;74368;-50
2023/09/09 05:47:55;;;;;;;10.40;3.80;;;;;;;13.74;100.00;100681.79;105608;1254;64359;-50
2023/09/09 05:50:23;;;;;;;12.20;4.70;;;;;;;13.80;100.00;100630.50;105620;1261;71408;-51
2023/09/09 05:52:50;;;;;;;15.30;4.90;;;;;;;13.84;100.00;100600.71;105622;1261;60494;-50
2023/09/09 05:55:21;;;;;;;10.70;4.40;;;;;;;13.93;100.00;100592.27;105750;1259;60404;-50
2023/09/09 05:57:50;;;;;;;11.20;4.40;;;;;;;14.07;100.00;100603.48;105800;1258;71914;-50
2023/09/09 06:00:19;;;;;;;9.00;4.10;;;;;;;14.19;100.00;100601.39;105754;1253;63122;-51
2023/09/09 06:02:47;;;;;;;9.80;4.10;;;;;;;14.24;100.00;100559.58;105749;1253;70654;-49
2023/09/09 06:05:15;;;;;;;11.30;3.50;;;;;;;14.25;100.00;100537.52;105781;1259;60563;-50
2023/09/09 06:07:43;;;;;;;15.00;4.70;;;;;;;14.25;100.00;100537.32;105700;1253;60336;-54
2023/09/09 06:10:12;;;;;;;10.80;4.20;;;;;;;14.28;100.00;100539.65;105674;1254;72606;-53
2023/09/09 06:12:41;;;;;;;10.50;4.90;;;;;;;14.35;100.00;100543.76;105791;1253;63726;-54
2023/09/09 06:15:09;;;;;;;14.00;4.50;;;;;;;14.44;100.00;100541.55;105773;1253;71446;-55
2023/09/09 06:17:39;;;;;;;13.10;3.80;;;;;;;14.55;100.00;100529.23;105710;1253;60446;-51
2023/09/09 06:20:09;;;;;;;9.10;3.90;;;;;;;14.66;100.00;100510.63;105687;1258;60349;-50
2023/09/09 06:22:37;;;;;;;13.40;4.50;;;;;;;14.76;100.00;100501.63;105688;1258;73768;-50
2023/09/09 06:25:06;;;;;;;9.30;3.90;;;;;;;14.86;100.00;100495.73;105642;1258;64515;-49
2023/09/09 06:27:34;;;;;;;10.80;4.60;;;;;;;14.96;100.00;100488.93;105670;1260;70731;-51
2023/09/09 06:30:03;;;;;;;10.50;4.10;;;;;;;15.05;100.00;100484.95;105758;1253;60516;-50
2023/09/09 06:32:31;;;;;;;16.20;3.80;;;;;;;15.13;100.00;100484.16;105779;1253;60424;-50
2023/09/09 06:34:59;;;;;;;10.40;3.90;;;;;;;15.23;100.00;100492.65;105767;1259;72885;-52
2023/09/09 06:37:27;;;;;;;10.60;3.50;;;;;;;15.32;100.00;100495.09;105624;1253;64322;-51
2023/09/09 06:39:54;;;;;;;6.00;3.30;;;;;;;15.43;100.00;100511.88;105734;1253;71413;-50
2023/09/09 06:42:22;;;;;;;9.20;3.70;;;;;;;15.53;100.00;100521.61;105745;1259;60954;-51
2023/09/09 06:44:51;;;;;;;11.70;4.50;;;;;;;15.65;100.00;100515.05;105740;1253;60332;-51
2023/09/09 06:47:19;;;;;;;12.90;4.40;;;;;;;15.80;100.00;100531.02;105795;1259;72889;-49
2023/09/09 06:49:48;;;;;;;10.60;3.80;;;;;;;15.94;100.00;100548.79;105654;1258;62844;-49
2023/09/09 06:52:16;;;;;;;12.00;3.30;;;;;;;16.07;100.00;100555.25;105684;1258;72653;-51
2023/09/09 06:54:44;;;;;;;19.10;4.50;;;;;;;16.21;100.00;100581.14;105632;1253;60426;-49
2023/09/09 06:57:11;;;;;;;15.00;3.50;;;;;;;16.32;100.00;100610.84;105788;1259;60375;-50
2023/09/09 06:59:39;;;;;;;12.10;3.00;;;;;;;16.43;100.00;100655.48;105668;1254;72666;-49
2023/09/09 07:02:07;;;;;;;14.80;2.40;;;;;;;16.57;100.00;100683.14;105751;1259;63126;-49
2023/09/09 07:04:35;;;;;;;7.40;2.60;;;;;;;16.70;100.00;100722.20;105782;1254;70448;-49
2023/09/09 07:07:03;;;;;;;12.60;2.80;;;;;;;16.79;100.00;100765.58;105814;1254;60636;-50
2023/09/09 07:09:39;;;;;;;8.80;2.50;;;;;;;16.85;100.00;100800.92;105644;1259;60550;-52
2023/09/09 07:12:09;;;;;;;3.70;2.30;;;;;;;16.84;100.00;100834.56;105772;1260;72968;-51
2023/09/09 07:14:37;;;;;;;8.40;1.90;;;;;;;16.89;100.00;100838.73;105689;1259;64399;-50
2023/09/09 07:17:08;;;;;;;14.70;2.50;;;;;;;16.96;100.00;100842.85;105691;1256;71379;-51
2023/09/09 07:19:36;;;;;;;8.30;2.70;;;;;;;17.00;100.00;100851.59;105748;1255;60893;-51
2023/09/09 07:22:05;;;;;;;9.40;1.90;;;;;;;17.05;100.00;100865.16;105663;1258;60793;-52
2023/09/09 07:24:33;;;;;;;6.10;2.80;;;;;;;17.19;100.00;100867.77;105789;1259;73754;-50
2023/09/09 07:27:03;;;;;;;8.70;1.80;;;;;;;17.34;100.00;100867.15;105659;1258;63164;-51
2023/09/09 07:29:31;;;;;;;37.20;2.80;;;;;;;17.48;98.76;100869.75;105765;1253;72601;-51
2023/09/09 07:31:59;;;;;;;6.30;2.30;;;;;;;17.55;91.44;100877.16;105709;1254;60471;-51
2023/09/09 07:34:27;;;;;;;3.80;1.70;;;;;;;17.60;83.17;100869.97;105501;1258;60533;-50
2023/09/09 07:36:55;;;;;;;5.70;2.00;;;;;;;17.59;79.02;100885.55;109495;1253;74062;-50
2023/09/09 07:39:25;;;;;;;4.40;2.10;;;;;;;17.60;79.00;100900.33;109331;1253;64535;-51
2023/09/09 07:41:53;;;;;;;4.50;2.50;;;;;;;17.68;80.00;100914.49;109342;1253;71262;-52
2023/09/09 07:44:21;;;;;;;6.50;2.10;;;;;;;17.83;80.48;100922.25;109479;1255;59233;-51
2023/09/09 07:46:48;;;;;;;10.20;1.90;;;;;;;18.02;77.76;100907.16;109327;1253;58763;-51
2023/09/09 07:49:17;;;;;;;12.40;2.70;;;;;;;18.16;73.39;100881.27;109509;1253;74311;-50
2023/09/09 07:53:08;;;;;;;6.30;1.70;;;;;;;18.32;71.62;100887.23;102696;1295;601157;-50
2023/09/09 07:55:35;;;;;;;1.50;1.40;;;;;;;18.41;68.84;100852.93;104818;1266;59134;-50
2023/09/09 07:58:03;;;;;;;2.50;1.50;;;;;;;18.46;68.13;100860.20;104869;1266;60073;-50
2023/09/09 08:00:32;;;;;;;7.00;1.60;;;;;;;18.50;67.35;100869.62;104812;1270;72302;-49
2023/09/09 08:02:59;;;;;;;7.00;1.50;;;;;;;18.57;67.05;100874.92;104819;1266;63134;-50
2023/09/09 08:05:27;;;;;;;5.20;2.00;;;;;;;18.64;66.94;100886.31;104857;1267;71363;-51
2023/09/09 08:07:55;;;;;;;4.80;1.80;;;;;;;18.74;67.20;100910.18;104941;1263;252084;-52
2023/09/09 08:10:23;;;;;;;8.20;2.10;;;;;;;18.90;65.92;100876.23;105101;1263;60078;-51
2023/09/09 08:12:50;;;;;;;1.50;1.40;;;;;;;18.96;65.62;100877.34;105108;1265;72017;-50
2023/09/09 08:15:18;;;;;;;4.70;2.10;;;;;;;19.09;65.66;100900.73;105156;1260;63102;-52
2023/09/09 08:18:01;;;;;;;5.80;2.20;;;;;;;19.30;62.85;100803.34;105225;1263;71377;-52
2023/09/09 08:20:29;;;;;;;3.80;2.10;;;;;;;19.49;62.40;100806.27;105121;1265;59991;-52
2023/09/09 08:22:57;;;;;;;7.80;2.60;;;;;;;19.66;61.49;100772.67;105256;1265;59619;-50
2023/09/09 08:25:25;;;;;;;8.30;4.10;;;;;;;19.65;61.41;100798.95;105152;1261;73026;-55
2023/09/09 08:27:52;;;;;;;5.00;3.20;;;;;;;19.37;60.47;100774.82;105179;1262;63150;-52
2023/09/09 08:30:21;;;;;;;7.70;4.10;;;;;;;19.02;62.04;100896.15;105268;1262;72675;-54
2023/09/09 08:32:49;;;;;;;5.50;1.60;;;;;;;19.02;62.38;100922.05;105088;1264;59690;-51
2023/09/09 08:35:17;;;;;;;7.90;1.90;;;;;;;19.21;61.37;100868.31;105097;1261;59947;-54
2023/09/09 08:37:44;;;;;;;2.60;1.50;;;;;;;19.42;60.12;100797.68;105083;1261;73336;-51
2023/09/09 08:40:12;;;;;;;11.10;1.90;;;;;;;19.40;60.43;100843.98;105142;1263;63208;-51
2023/09/09 08:42:51;;;;;;;6.60;1.20;;;;;;;19.31;58.13;100699.90;105097;1261;72722;-52
2023/09/09 08:45:35;;;;;;;2.90;1.40;;;;;;;19.17;58.75;100772.67;105251;1262;59667;-50
2023/09/09 08:48:06;;;;;;;3.50;1.20;;;;;;;19.30;58.57;100778.84;105263;1260;59988;-53
2023/09/09 08:50:39;;;;;;;2.20;1.30;;;;;;;19.59;58.17;100746.77;105199;1263;72969;-51
2023/09/09 08:53:07;;;;;;;11.00;1.30;;;;;;;19.89;57.73;100717.88;105071;1265;63643;-52
2023/09/09 08:55:37;;;;;;;5.10;1.70;;;;;;;20.19;55.39;100532.54;105140;1265;71008;-51
2023/09/09 08:58:05;;;;;;;3.70;1.80;;;;;;;20.33;54.95;100491.98;105230;1262;59724;-52
2023/09/09 09:00:34;;;;;;;5.30;1.90;;;;;;;20.48;55.42;100565.27;105199;1265;60081;-51
2023/09/09 09:03:02;;;;;;;4.20;1.60;;;;;;;20.58;54.33;100478.41;105242;1262;71864;-51
2023/09/09 09:05:31;;;;;;;8.50;1.70;;;;;;;20.45;54.30;100500.23;105250;1261;63102;-52
2023/09/09 09:08:00;;;;;;;3.80;1.60;;;;;;;20.21;54.81;100592.04;105235;1265;72827;-51
2023/09/09 09:10:28;;;;;;;2.60;1.20;;;;;;;19.97;55.51;100701.73;105219;1262;59759;-50
2023/09/09 09:12:55;;;;;;;2.80;1.80;;;;;;;19.81;56.23;100794.46;105544;1261;59582;-52
2023/09/09 09:15:24;;;;;;;5.10;1.50;;;;;;;19.64;56.53;100841.36;105594;1256;71849;-50
2023/09/09 09:17:52;;;;;;;3.00;1.10;;;;;;;19.38;56.80;100883.11;105563;1256;63180;-52
2023/09/09 09:20:28;;;;;;;4.70;1.10;;;;;;;19.11;56.45;100854.98;105591;1260;72625;-53
2023/09/09 09:23:03;;;;;;;4.00;1.10;;;;;;;19.08;56.37;100876.98;105587;1260;59833;-50
2023/09/09 09:25:42;;;;;;;9.50;1.40;;;;;;;19.14;55.04;100731.36;105553;1256;59522;-52
2023/09/09 09:28:17;;;;;;;5.70;1.60;;;;;;;19.08;55.64;100790.04;105594;1256;71781;-50
2023/09/09 09:30:45;;;;;;;10.40;2.40;;;;;;;19.22;55.80;100824.72;105569;1256;63212;-51
2023/09/09 09:33:15;;;;;;;11.80;1.90;;;;;;;19.40;54.82;100731.61;105565;1258;70422;-53
2023/09/09 09:35:43;;;;;;;2.50;1.10;;;;;;;19.62;53.66;100609.40;105571;1261;59725;-51
2023/09/09 09:38:13;;;;;;;2.00;1.00;;;;;;;19.76;52.95;100544.02;105529;1256;60045;-53
2023/09/09 09:40:41;;;;;;;5.70;1.20;;;;;;;19.85;51.99;100415.22;105573;1257;71788;-50
2023/09/09 09:43:19;;;;;;;4.80;1.20;;;;;;;19.90;51.73;100405.14;105603;1261;63151;-51
2023/09/09 09:45:48;;;;;;;5.90;1.00;;;;;;;20.02;51.53;100385.04;105581;1261;71402;-53
2023/09/09 09:48:26;;;;;;;9.10;2.20;;;;;;;19.98;51.41;100381.41;105575;1262;59758;-51
2023/09/09 09:50:54;;;;;;;8.90;1.20;;;;;;;19.80;51.53;100444.23;105571;1256;60027;-51
2023/09/09 09:53:22;;;;;;;3.80;1.70;;;;;;;19.59;51.59;100468.14;105565;1257;70761;-51
2023/09/09 09:55:51;;;;;;;2.70;1.00;;;;;;;19.51;51.41;100489.03;105529;1256;63547;-50
2023/09/09 09:58:19;;;;;;;4.40;1.70;;;;;;;19.62;50.52;100350.58;105551;1257;71373;-55
2023/09/09 10:00:49;;;;;;;7.30;1.50;;;;;;;19.75;50.95;100406.48;105504;1256;59738;-50
2023/09/09 10:03:18;;;;;;;2.00;1.50;;;;;;;19.91;51.27;100472.63;105616;1261;59544;-52
2023/09/09 10:05:47;;;;;;;7.20;1.60;;;;;;;19.90;50.65;100405.34;105566;1260;72193;-51
2023/09/09 10:08:22;;;;;;;5.40;1.30;;;;;;;19.67;51.12;100446.01;105603;1256;63116;-50
2023/09/09 10:11:11;;;;;;;2.90;1.00;;;;;;;19.53;51.56;100526.73;105510;1258;70780;-50
2023/09/09 10:13:54;;;;;;;3.30;1.20;;;;;;;19.61;51.08;100485.86;105517;1261;60026;-51
2023/09/09 10:16:22;;;;;;;3.30;1.20;;;;;;;19.83;51.02;100478.68;105540;1256;59546;-51
2023/09/09 10:18:52;;;;;;;1.20;1.10;;;;;;;20.08;50.46;100423.58;105567;1256;71751;-51
2023/09/09 10:21:20;;;;;;;2.60;0.90;;;;;;;20.29;49.01;100216.27;105533;1258;63735;-53
2023/09/09 10:24:07;;;;;;;4.80;1.20;;;;;;;20.36;47.92;100078.81;105338;1259;71584;-53
2023/09/09 10:26:35;;;;;;;7.20;3.90;;;;;;;20.32;47.99;100078.90;105588;1256;59726;-52
2023/09/09 10:29:03;;;;;;;2.80;1.70;;;;;;;20.29;47.94;100104.52;105563;1257;59978;-51
2023/09/09 10:31:31;;;;;;;4.80;0.80;;;;;;;20.46;47.41;100044.53;105549;1261;73154;-52
2023/09/09 10:33:58;;;;;;;5.80;1.30;;;;;;;20.59;46.79;99957.83;105579;1257;63237;-51
2023/09/09 10:36:26;;;;;;;6.10;1.70;;;;;;;20.62;46.90;99982.11;105273;1256;72627;-52
2023/09/09 10:38:55;;;;;;;3.40;1.20;;;;;;;20.64;46.62;99948.34;105526;1256;59735;-55
2023/09/09 10:41:23;;;;;;;3.40;1.40;;;;;;;20.51;46.49;99934.69;105584;1261;59492;-52
2023/09/09 10:43:51;;;;;;;70.20;5.00;;;;;;;20.48;47.82;100103.81;105538;1262;70846;-51
2023/09/09 10:46:32;;;;;;;6.60;1.50;;;;;;;20.68;47.70;100128.43;105588;1256;64622;-55
2023/09/09 10:49:02;;;;;;;1.90;1.70;;;;;;;20.94;47.29;100086.80;105488;1261;72463;-51
2023/09/09 10:51:49;;;;;;;9.40;2.10;;;;;;;21.04;45.90;99924.91;105417;1259;59773;-55
2023/09/09 10:54:20;;;;;;;5.30;1.50;;;;;;;20.95;45.56;99834.58;105624;1262;59958;-53
2023/09/09 10:56:50;;;;;;;3.90;1.80;;;;;;;20.82;44.15;99661.19;105612;1261;73036;-51
2023/09/09 10:59:23;;;;;;;5.30;2.60;;;;;;;20.60;45.10;99785.28;105589;1261;63223;-52
2023/09/09 11:02:11;;;;;;;5.00;1.90;;;;;;;20.59;45.19;99806.73;105533;1261;71369;-52
2023/09/09 11:04:40;;;;;;;10.60;2.20;;;;;;;20.63;44.02;99696.00;105566;1262;60118;-51
2023/09/09 11:07:13;;;;;;;6.70;1.50;;;;;;;20.65;44.21;99678.21;105585;1256;59986;-54
2023/09/09 11:09:51;;;;;;;2.30;1.40;;;;;;;20.62;44.22;99706.23;105583;1257;71772;-52
2023/09/09 11:12:26;;;;;;;10.10;1.50;;;;;;;20.56;43.95;99670.08;105572;1262;63151;-50
2023/09/09 11:15:00;;;;;;;9.20;1.60;;;;;;;20.49;44.27;99709.34;105565;1256;72724;-50
2023/09/09 11:17:28;;;;;;;6.80;2.10;;;;;;;20.49;44.06;99710.91;105554;1260;59681;-52
2023/09/09 11:19:56;;;;;;;2.50;1.60;;;;;;;20.52;43.78;99674.73;105571;1256;60098;-51
2023/09/09 11:22:24;;;;;;;5.70;1.20;;;;;;;20.61;44.35;99738.21;105525;1256;71754;-52
2023/09/09 11:24:54;;;;;;;1.40;0.80;;;;;;;20.77;44.23;99717.85;105452;1256;64492;-50
2023/09/09 11:27:21;;;;;;;3.30;1.10;;;;;;;20.82;43.79;99702.95;105421;1260;71441;-50
2023/09/09 11:29:52;;;;;;;3.20;0.80;;;;;;;20.78;43.45;99619.91;105388;1257;60081;-52
2023/09/09 11:32:27;;;;;;;5.10;0.90;;;;;;;20.67;43.51;99633.32;105588;1256;59725;-51
2023/09/09 11:34:56;;;;;;;3.10;2.00;;;;;;;20.70;44.03;99710.08;105571;1256;71826;-50